Time;durP1;ratioP1;P1;durP2;ratioP2;P2;SDS_P1;SDS_P2;PMS_P1;PMS_P2;Temp;Humidity;BMP_temperature;BMP_pressure;BME280_temperature;BME280_humidity;BME280_pressure;Samples;Min_cycle;Max_cycle;Signal;HPM_P1;HPM_P2
2021/10/06 00:01:35;;;;;;;10.38;1.67;;;17.10;99.90;;;;;;5035524;28;20052;-71
2021/10/06 00:04:39;;;;;;;14.45;1.80;;;17.10;99.90;;;;;;5038132;28;20051;-71
2021/10/06 00:07:43;;;;;;;13.60;2.00;;;17.10;99.90;;;;;;5037829;28;20048;-71
2021/10/06 00:10:47;;;;;;;12.48;1.88;;;17.00;99.90;;;;;;5038271;28;20044;-71
2021/10/06 00:13:52;;;;;;;9.30;1.75;;;16.80;99.90;;;;;;5037842;28;20049;-71
2021/10/06 00:16:55;;;;;;;13.35;1.67;;;16.80;99.90;;;;;;5041342;28;20052;-71
2021/10/06 00:20:00;;;;;;;10.52;2.15;;;16.80;99.90;;;;;;5049549;28;20044;-71
2021/10/06 00:23:04;;;;;;;15.20;1.90;;;16.70;99.90;;;;;;5052163;28;20051;-71
2021/10/06 00:26:08;;;;;;;7.75;1.30;;;16.70;99.90;;;;;;5049247;28;20044;-71
2021/10/06 00:29:12;;;;;;;9.40;1.83;;;16.70;99.90;;;;;;5045167;28;20044;-71
2021/10/06 00:32:16;;;;;;;10.23;1.70;;;16.60;99.90;;;;;;5035019;28;20048;-70
2021/10/06 00:35:20;;;;;;;10.50;1.60;;;16.70;99.90;;;;;;5038876;28;20040;-70
2021/10/06 00:38:25;;;;;;;15.63;2.20;;;16.70;99.90;;;;;;5048230;28;20391;-71
2021/10/06 00:41:30;;;;;;;13.10;2.00;;;16.60;99.90;;;;;;5046688;28;20064;-71
2021/10/06 00:44:35;;;;;;;9.13;1.73;;;16.60;99.90;;;;;;5044306;28;20040;-71
2021/10/06 00:47:39;;;;;;;9.25;1.58;;;16.60;99.90;;;;;;5047565;28;20052;-71
2021/10/06 00:50:44;;;;;;;5.97;1.40;;;16.40;99.90;;;;;;5044474;28;20067;-71
2021/10/06 00:53:48;;;;;;;22.63;3.28;;;16.50;99.90;;;;;;5047610;28;20040;-71
2021/10/06 00:56:52;;;;;;;8.80;1.70;;;16.50;99.90;;;;;;5047454;28;20387;-71
2021/10/06 00:59:56;;;;;;;13.68;2.33;;;16.50;99.90;;;;;;5038591;28;20056;-71
2021/10/06 01:03:01;;;;;;;13.27;1.95;;;16.50;99.90;;;;;;5048221;28;20075;-71
2021/10/06 01:06:06;;;;;;;12.40;2.25;;;16.40;99.90;;;;;;5048413;28;20411;-71
2021/10/06 01:09:10;;;;;;;8.32;2.30;;;16.30;99.90;;;;;;5039624;28;20056;-71
2021/10/06 01:12:14;;;;;;;9.68;2.05;;;16.30;99.90;;;;;;5035505;28;20040;-72
2021/10/06 01:15:19;;;;;;;15.07;1.95;;;16.20;99.90;;;;;;5045728;28;20044;-71
2021/10/06 01:18:22;;;;;;;13.35;1.73;;;16.00;99.90;;;;;;5039142;28;20363;-71
2021/10/06 01:21:27;;;;;;;10.25;1.75;;;16.00;99.90;;;;;;5038652;28;20048;-71
2021/10/06 01:24:31;;;;;;;10.80;2.47;;;15.80;99.90;;;;;;5041727;28;20399;-71
2021/10/06 01:27:37;;;;;;;12.27;2.15;;;15.80;99.90;;;;;;5045539;28;20044;-71
2021/10/06 01:30:41;;;;;;;12.60;2.25;;;15.80;99.90;;;;;;5037209;28;20048;-71
2021/10/06 01:33:45;;;;;;;12.45;2.03;;;15.80;99.90;;;;;;5036818;28;20044;-71
2021/10/06 01:36:52;;;;;;;11.45;2.13;;;15.90;99.90;;;;;;5047458;28;20040;-71
2021/10/06 01:39:57;;;;;;;19.52;2.95;;;15.90;99.90;;;;;;5040394;28;20064;-71
2021/10/06 01:43:01;;;;;;;7.40;1.73;;;15.90;99.90;;;;;;5046696;28;20067;-71
2021/10/06 01:46:05;;;;;;;15.13;2.33;;;15.90;99.90;;;;;;5039539;28;20032;-71
2021/10/06 01:49:10;;;;;;;11.98;2.17;;;15.90;99.90;;;;;;5034790;28;20060;-71
2021/10/06 01:52:19;;;;;;;12.55;1.90;;;16.00;99.90;;;;;;5043713;28;20057;-71
2021/10/06 01:55:28;;;;;;;8.45;1.45;;;16.10;99.90;;;;;;5043708;28;20048;-71
2021/10/06 01:58:33;;;;;;;8.82;1.85;;;16.10;99.90;;;;;;5039374;28;20380;-71
2021/10/06 02:01:37;;;;;;;13.73;1.75;;;16.10;99.90;;;;;;5046637;28;20048;-71
2021/10/06 02:04:43;;;;;;;8.20;2.13;;;16.10;99.90;;;;;;5047677;28;20040;-71
2021/10/06 02:07:47;;;;;;;16.27;2.25;;;16.00;99.90;;;;;;5041184;28;20048;-72
2021/10/06 02:10:51;;;;;;;14.75;2.67;;;15.50;99.90;;;;;;5039730;28;20051;-72
2021/10/06 02:13:55;;;;;;;13.65;2.50;;;15.40;99.90;;;;;;5038030;28;20060;-71
2021/10/06 02:16:59;;;;;;;11.00;2.42;;;15.30;99.90;;;;;;5042539;28;20040;-71
2021/10/06 02:20:04;;;;;;;12.20;3.00;;;15.30;99.90;;;;;;5044378;28;20052;-71
2021/10/06 02:23:09;;;;;;;11.65;2.65;;;15.30;99.90;;;;;;5040240;28;20051;-71
2021/10/06 02:26:13;;;;;;;10.48;2.15;;;15.50;99.90;;;;;;5031414;28;20074;-71
2021/10/06 02:29:17;;;;;;;5.82;1.80;;;15.50;99.90;;;;;;5032131;28;20392;-71
2021/10/06 02:32:21;;;;;;;16.40;2.30;;;15.50;99.90;;;;;;5044954;28;20061;-71
2021/10/06 02:35:25;;;;;;;13.20;2.38;;;15.30;99.90;;;;;;5043608;28;20043;-71
2021/10/06 02:38:30;;;;;;;15.90;2.30;;;15.00;99.90;;;;;;5048477;28;20640;-71
2021/10/06 02:41:34;;;;;;;7.03;2.08;;;15.00;99.90;;;;;;5045047;28;20043;-71
2021/10/06 02:44:38;;;;;;;9.18;2.28;;;15.10;99.90;;;;;;5038074;28;20138;-71
2021/10/06 02:47:43;;;;;;;9.30;2.58;;;15.20;99.90;;;;;;5038708;28;20053;-71
2021/10/06 02:50:47;;;;;;;9.65;2.25;;;15.30;99.90;;;;;;5039183;28;20395;-71
2021/10/06 02:53:52;;;;;;;13.57;2.38;;;15.40;99.90;;;;;;5034594;28;20047;-71
2021/10/06 02:57:01;;;;;;;12.00;2.88;;;15.30;99.90;;;;;;5036445;28;20040;-71
2021/10/06 03:00:07;;;;;;;13.68;2.67;;;15.10;99.90;;;;;;5041052;28;20036;-71
2021/10/06 03:03:13;;;;;;;15.13;2.45;;;14.90;99.90;;;;;;5035212;28;20048;-72
2021/10/06 03:06:17;;;;;;;15.23;3.13;;;14.70;99.90;;;;;;5039289;28;20048;-71
2021/10/06 03:09:21;;;;;;;16.50;3.05;;;14.60;99.90;;;;;;5041076;28;20498;-71
2021/10/06 03:12:25;;;;;;;13.38;2.50;;;14.50;99.90;;;;;;5046643;28;20051;-71
2021/10/06 03:15:29;;;;;;;15.60;2.38;;;14.50;99.90;;;;;;5043021;28;20503;-71
2021/10/06 03:18:33;;;;;;;12.80;2.75;;;14.50;99.90;;;;;;5040297;28;20040;-70
2021/10/06 03:21:37;;;;;;;9.05;2.45;;;14.70;99.90;;;;;;5045110;28;20064;-71
2021/10/06 03:24:41;;;;;;;11.65;2.63;;;14.70;99.90;;;;;;5040322;28;20510;-70
2021/10/06 03:27:45;;;;;;;10.20;2.00;;;14.70;99.90;;;;;;5043911;28;20048;-71
2021/10/06 03:30:49;;;;;;;11.38;2.58;;;14.80;99.90;;;;;;5040849;28;20044;-71
2021/10/06 03:33:53;;;;;;;15.82;2.70;;;14.80;99.90;;;;;;5041544;28;20048;-71
2021/10/06 03:36:57;;;;;;;13.93;2.42;;;14.80;99.90;;;;;;5037924;28;20045;-71
2021/10/06 03:40:01;;;;;;;11.85;1.92;;;14.70;99.90;;;;;;5038634;28;20502;-70
2021/10/06 03:43:06;;;;;;;13.00;2.67;;;14.70;99.90;;;;;;5039209;28;20048;-70
2021/10/06 03:46:10;;;;;;;13.45;2.75;;;14.70;99.90;;;;;;5049230;28;20047;-71
2021/10/06 03:49:14;;;;;;;14.60;3.10;;;14.60;99.90;;;;;;5035126;28;20407;-71
2021/10/06 03:52:18;;;;;;;14.25;3.47;;;14.60;99.90;;;;;;5031800;28;20303;-71
2021/10/06 03:55:22;;;;;;;14.60;3.60;;;14.50;99.90;;;;;;5050573;28;20423;-71
2021/10/06 03:58:26;;;;;;;14.50;4.13;;;14.50;99.90;;;;;;5053144;28;20044;-70
2021/10/06 04:01:31;;;;;;;19.33;4.28;;;14.50;99.90;;;;;;5041846;28;20051;-71
2021/10/06 04:04:35;;;;;;;22.33;3.78;;;14.50;99.90;;;;;;5041675;28;20514;-71
2021/10/06 04:07:39;;;;;;;13.57;4.18;;;14.40;99.90;;;;;;5041825;28;20036;-71
2021/10/06 04:10:43;;;;;;;14.52;3.78;;;14.30;99.90;;;;;;5043429;28;20498;-71
2021/10/06 04:13:48;;;;;;;17.20;3.95;;;14.20;99.90;;;;;;5052524;28;20044;-71
2021/10/06 04:16:52;;;;;;;15.43;3.08;;;14.10;99.90;;;;;;5042936;28;20040;-71
2021/10/06 04:19:56;;;;;;;17.95;3.30;;;14.10;99.90;;;;;;5041169;28;20052;-71
2021/10/06 04:23:00;;;;;;;17.42;4.15;;;14.10;99.90;;;;;;5049044;28;20047;-70
2021/10/06 04:26:04;;;;;;;8.90;2.65;;;14.00;99.90;;;;;;5044358;28;20522;-70
2021/10/06 04:29:08;;;;;;;15.75;3.13;;;14.10;99.90;;;;;;5038344;28;20402;-71
2021/10/06 04:32:12;;;;;;;15.43;3.22;;;14.00;99.90;;;;;;5041482;28;20072;-71
2021/10/06 04:35:16;;;;;;;17.90;3.40;;;14.10;99.90;;;;;;5041379;28;20048;-70
2021/10/06 04:38:21;;;;;;;13.02;3.70;;;14.10;99.90;;;;;;5050643;28;20063;-71
2021/10/06 04:41:25;;;;;;;9.38;3.13;;;14.10;99.90;;;;;;5048031;28;20044;-70
2021/10/06 04:44:29;;;;;;;13.35;3.35;;;14.00;99.90;;;;;;5039014;28;20400;-70
2021/10/06 04:47:33;;;;;;;10.88;2.90;;;14.10;99.90;;;;;;5040576;28;20391;-71
2021/10/06 04:50:37;;;;;;;14.30;3.00;;;14.10;99.90;;;;;;5044283;28;20048;-71
2021/10/06 04:53:41;;;;;;;14.88;3.05;;;14.10;99.90;;;;;;5035649;28;20399;-71
2021/10/06 04:56:46;;;;;;;19.08;3.80;;;14.10;99.90;;;;;;5043125;28;20392;-71
2021/10/06 04:59:50;;;;;;;15.10;2.92;;;14.10;99.90;;;;;;5048421;28;20043;-71
2021/10/06 05:02:54;;;;;;;12.88;3.05;;;14.00;99.90;;;;;;5048569;28;20047;-70
2021/10/06 05:05:58;;;;;;;11.30;2.35;;;13.90;99.90;;;;;;5047853;28;20044;-71
2021/10/06 05:09:02;;;;;;;11.75;2.80;;;13.90;99.90;;;;;;5045059;28;20059;-71
2021/10/06 05:12:06;;;;;;;15.23;2.88;;;14.10;99.90;;;;;;5043429;28;20040;-70
2021/10/06 05:15:10;;;;;;;17.42;2.83;;;14.20;99.90;;;;;;5042767;28;20314;-71
2021/10/06 05:18:14;;;;;;;12.38;3.53;;;14.40;99.90;;;;;;5039949;28;20048;-71
2021/10/06 05:21:18;;;;;;;17.75;3.03;;;14.50;99.90;;;;;;5045232;28;20043;-71
2021/10/06 05:24:22;;;;;;;12.05;2.55;;;14.60;99.90;;;;;;5043493;28;20400;-70
2021/10/06 05:27:27;;;;;;;8.73;2.40;;;14.70;99.90;;;;;;5037298;28;20048;-70
2021/10/06 05:30:31;;;;;;;7.88;2.25;;;15.10;99.90;;;;;;5039758;28;20499;-71
2021/10/06 05:33:35;;;;;;;9.73;1.70;;;15.30;99.90;;;;;;5039874;28;20048;-71
2021/10/06 05:36:39;;;;;;;11.48;2.15;;;15.40;99.90;;;;;;5045945;28;20365;-71
2021/10/06 05:39:43;;;;;;;10.70;2.40;;;15.00;99.90;;;;;;5043609;28;20411;-71
2021/10/06 05:42:47;;;;;;;10.20;3.00;;;14.90;99.90;;;;;;5040033;28;20037;-71
2021/10/06 05:45:51;;;;;;;12.02;3.15;;;15.00;99.90;;;;;;5046922;28;20360;-71
2021/10/06 05:48:55;;;;;;;13.82;3.78;;;15.00;99.90;;;;;;5044781;28;20036;-70
2021/10/06 05:52:00;;;;;;;15.70;3.88;;;15.00;99.90;;;;;;5041520;28;20056;-71
2021/10/06 05:55:05;;;;;;;16.80;3.67;;;14.80;99.90;;;;;;5039584;28;20116;-71
2021/10/06 05:58:10;;;;;;;13.52;3.92;;;14.80;99.90;;;;;;5033771;28;20052;-71
2021/10/06 06:01:14;;;;;;;11.10;3.55;;;14.80;99.90;;;;;;5047535;28;20051;-72
2021/10/06 06:04:18;;;;;;;11.52;3.05;;;14.80;99.90;;;;;;5045301;28;20046;-71
2021/10/06 06:07:22;;;;;;;19.52;4.15;;;14.80;99.90;;;;;;5046749;28;20051;-71
2021/10/06 06:24:54;;;;;;;13.70;3.67;;;14.90;99.90;;;;;;5049934;28;20051;-71
2021/10/06 06:27:58;;;;;;;10.00;3.10;;;14.90;99.90;;;;;;5040602;28;20048;-71
2021/10/06 06:31:02;;;;;;;16.80;4.13;;;15.00;99.90;;;;;;5039629;28;20064;-71
2021/10/06 06:34:06;;;;;;;10.18;2.88;;;15.00;99.90;;;;;;5041546;28;20036;-71
2021/10/06 06:37:10;;;;;;;12.82;3.20;;;15.20;99.90;;;;;;5040420;28;20404;-71
2021/10/06 06:40:14;;;;;;;15.73;3.80;;;15.40;99.90;;;;;;5044212;28;20494;-71
2021/10/06 06:43:18;;;;;;;8.95;2.70;;;15.50;99.90;;;;;;5036331;28;20036;-72
2021/10/06 06:46:22;;;;;;;8.23;2.78;;;15.60;99.90;;;;;;5040639;28;20052;-71
2021/10/06 06:49:26;;;;;;;4.47;1.92;;;15.70;99.90;;;;;;5033754;28;20052;-71
2021/10/06 06:52:30;;;;;;;7.15;2.00;;;16.00;99.90;;;;;;5042188;28;20039;-71
2021/10/06 06:55:35;;;;;;;10.00;2.05;;;16.10;99.90;;;;;;5040198;28;20044;-71
2021/10/06 06:58:39;;;;;;;11.65;2.00;;;16.20;99.90;;;;;;5043413;28;20039;-71
2021/10/06 07:01:43;;;;;;;12.40;2.25;;;16.30;99.90;;;;;;5043344;28;20499;-71
2021/10/06 07:04:47;;;;;;;8.13;1.90;;;16.40;99.90;;;;;;5042513;28;20040;-71
2021/10/06 07:07:51;;;;;;;6.13;1.98;;;16.60;99.90;;;;;;5045725;28;20047;-71
2021/10/06 07:10:55;;;;;;;9.40;1.77;;;16.70;99.90;;;;;;5037099;28;20040;-71
2021/10/06 07:14:00;;;;;;;8.13;1.83;;;17.10;99.90;;;;;;5036421;28;20040;-71
2021/10/06 07:17:04;;;;;;;7.43;2.28;;;17.50;99.90;;;;;;5045716;28;20052;-71
2021/10/06 07:20:09;;;;;;;10.57;2.08;;;17.90;99.90;;;;;;5038442;28;20056;-70
2021/10/06 07:23:13;;;;;;;8.15;1.55;;;18.10;99.90;;;;;;5044614;28;20037;-71
2021/10/06 07:26:17;;;;;;;4.03;1.40;;;18.10;99.90;;;;;;5040266;28;20498;-71
2021/10/06 07:29:21;;;;;;;7.25;1.42;;;18.10;99.90;;;;;;5045067;28;20040;-72
2021/10/06 07:32:26;;;;;;;9.23;1.70;;;19.10;99.90;;;;;;5041805;28;20044;-71
2021/10/06 07:35:31;;;;;;;6.95;1.40;;;19.80;99.90;;;;;;5034454;28;20044;-71
2021/10/06 07:38:34;;;;;;;7.95;1.63;;;20.20;99.90;;;;;;5033616;28;20052;-72
2021/10/06 07:41:39;;;;;;;5.25;1.48;;;20.40;99.90;;;;;;5032770;28;20057;-71
2021/10/06 07:44:44;;;;;;;3.85;1.35;;;21.00;99.90;;;;;;5033431;28;20044;-71
2021/10/06 07:47:49;;;;;;;5.28;1.92;;;21.70;99.90;;;;;;5042166;28;20037;-71
2021/10/06 07:50:54;;;;;;;7.68;1.80;;;22.50;99.90;;;;;;5046234;28;20032;-72
2021/10/06 07:53:58;;;;;;;10.50;1.70;;;22.10;99.90;;;;;;5053923;28;20044;-72
2021/10/06 07:57:02;;;;;;;10.73;4.30;;;21.50;99.90;;;;;;5043089;28;20115;-71
2021/10/06 08:00:07;;;;;;;26.90;14.73;;;23.30;99.90;;;;;;5035929;28;20059;-72
2021/10/06 08:03:15;;;;;;;15.27;7.63;;;25.30;99.90;;;;;;5035620;28;20044;-72
2021/10/06 08:06:20;;;;;;;9.90;2.95;;;25.80;99.90;;;;;;5046430;28;20048;-72
2021/10/06 08:09:24;;;;;;;8.77;2.38;;;27.20;99.90;;;;;;5036026;28;20040;-72
2021/10/06 08:12:28;;;;;;;4.78;1.60;;;29.40;99.10;;;;;;5047122;28;20040;-72
2021/10/06 08:15:32;;;;;;;6.35;1.63;;;31.00;96.10;;;;;;5048817;28;20120;-72
2021/10/06 08:18:37;;;;;;;6.35;1.90;;;31.60;92.90;;;;;;5052038;28;20052;-71
2021/10/06 08:21:41;;;;;;;7.95;1.85;;;31.90;91.60;;;;;;5045425;28;20048;-71
2021/10/06 08:24:45;;;;;;;7.25;1.30;;;29.90;92.10;;;;;;5052540;28;20048;-72
2021/10/06 08:27:50;;;;;;;5.70;1.70;;;31.40;92.30;;;;;;5043308;28;20044;-72
2021/10/06 08:30:54;;;;;;;5.93;1.80;;;33.70;88.50;;;;;;5032792;28;20048;-72
2021/10/06 08:33:58;;;;;;;9.80;1.88;;;32.10;87.00;;;;;;5047420;28;20048;-71
2021/10/06 08:37:03;;;;;;;9.10;2.00;;;33.10;88.20;;;;;;5042989;28;20044;-72
2021/10/06 08:40:08;;;;;;;8.18;1.60;;;31.50;89.90;;;;;;5032622;28;20048;-72
2021/10/06 08:43:13;;;;;;;7.85;1.75;;;33.30;85.50;;;;;;5033072;28;20045;-70
2021/10/06 08:46:17;;;;;;;10.23;2.55;;;27.10;88.80;;;;;;5050039;28;20044;-72
2021/10/06 08:49:21;;;;;;;9.27;1.60;;;26.80;91.90;;;;;;5036636;28;20032;-71
2021/10/06 08:52:25;;;;;;;6.72;1.63;;;30.00;88.30;;;;;;5041185;28;20048;-70
2021/10/06 08:55:30;;;;;;;10.10;1.90;;;27.00;90.30;;;;;;5039039;28;20494;-71
2021/10/06 08:58:34;;;;;;;6.40;1.63;;;26.10;91.80;;;;;;5037194;28;20048;-71
2021/10/06 09:01:43;;;;;;;14.88;1.90;;;26.30;90.60;;;;;;5044063;28;20048;-71
2021/10/06 09:04:51;;;;;;;8.02;1.48;;;26.00;91.00;;;;;;5046373;28;20049;-72
2021/10/06 09:08:05;;;;;;;8.60;1.73;;;29.50;89.70;;;;;;5033927;28;20048;-72
2021/10/06 09:11:11;;;;;;;7.53;1.73;;;27.90;87.20;;;;;;5034803;28;20048;-71
2021/10/06 09:14:18;;;;;;;6.15;1.70;;;27.70;90.10;;;;;;5034078;28;20502;-73
2021/10/06 09:17:22;;;;;;;6.90;1.95;;;30.40;88.10;;;;;;5035432;28;20052;-71
2021/10/06 09:20:34;;;;;;;7.07;1.60;;;30.10;83.60;;;;;;5032245;28;20048;-71
2021/10/06 09:23:40;;;;;;;10.60;1.80;;;33.30;81.20;;;;;;5032014;28;20036;-71
2021/10/06 09:26:44;;;;;;;6.05;1.55;;;34.20;78.50;;;;;;5044905;28;20064;-70
2021/10/06 09:29:55;;;;;;;5.88;1.88;;;33.70;77.50;;;;;;5051874;28;20044;-69
2021/10/06 09:33:00;;;;;;;;;;;33.30;78.70;;;;;;5053295;28;20025;-71
2021/10/06 09:36:28;;;;;;;6.38;1.38;;;28.30;82.70;;;;;;5048688;28;19920;-72
2021/10/06 09:39:32;;;;;;;10.05;1.50;;;28.10;84.40;;;;;;5039754;28;20048;-72
2021/10/06 09:42:51;;;;;;;6.50;1.17;;;28.10;83.20;;;;;;5044981;28;20040;-71
2021/10/06 09:45:56;;;;;;;7.65;1.67;;;29.60;83.40;;;;;;5052207;28;20047;-72
2021/10/06 09:49:00;;;;;;;8.52;1.75;;;29.80;81.60;;;;;;5040987;28;20048;-72
2021/10/06 09:52:16;;;;;;;9.00;1.88;;;27.90;84.60;;;;;;5052554;28;20635;-72
2021/10/06 09:55:31;;;;;;;8.50;2.05;;;26.50;84.70;;;;;;5051981;28;20068;-72
2021/10/06 09:58:35;;;;;;;8.00;1.92;;;26.40;86.00;;;;;;5052066;28;20040;-70
2021/10/06 10:01:46;;;;;;;9.98;2.25;;;24.30;88.20;;;;;;5050037;28;20039;-72
2021/10/06 10:04:52;;;;;;;6.32;1.85;;;23.20;92.20;;;;;;5047169;28;20144;-69
2021/10/06 10:07:57;;;;;;;9.90;2.10;;;22.70;93.40;;;;;;5037364;28;20040;-71
2021/10/06 10:11:01;;;;;;;8.60;2.28;;;22.30;94.00;;;;;;5044306;28;20040;-71
2021/10/06 10:14:07;;;;;;;12.70;1.92;;;21.30;94.20;;;;;;5044528;28;20044;-71
2021/10/06 10:17:12;;;;;;;9.57;1.77;;;22.20;94.90;;;;;;5046127;28;20048;-71
2021/10/06 10:20:17;;;;;;;11.43;2.15;;;24.60;91.80;;;;;;5050585;28;20056;-71
2021/10/06 10:23:24;;;;;;;11.05;2.05;;;24.20;91.70;;;;;;5050919;28;20048;-71
2021/10/06 10:26:29;;;;;;;8.10;1.98;;;25.20;90.20;;;;;;5049640;28;20044;-71
2021/10/06 10:29:57;;;;;;;7.15;1.63;;;26.60;87.80;;;;;;5050958;28;20657;-73
2021/10/06 10:33:01;;;;;;;12.05;1.98;;;30.40;83.30;;;;;;5050655;28;20507;-71
2021/10/06 10:36:35;;;;;;;7.78;1.52;;;30.60;82.10;;;;;;5032955;28;20041;-70
2021/10/06 10:39:42;;;;;;;10.38;2.20;;;28.90;83.40;;;;;;5023597;28;20527;-70
2021/10/06 10:43:07;;;;;;;14.30;1.80;;;28.40;80.90;;;;;;5042007;28;20111;-71
2021/10/06 10:46:12;;;;;;;10.30;1.73;;;28.50;81.20;;;;;;5041395;28;20064;-70
2021/10/06 10:49:17;;;;;;;10.25;2.10;;;28.50;79.50;;;;;;5049086;28;20048;-68
2021/10/06 10:52:47;;;;;;;11.45;2.28;;;26.90;82.60;;;;;;5042817;28;20143;-70
2021/10/06 10:55:55;;;;;;;8.88;2.35;;;28.40;81.10;;;;;;5042977;28;20248;-70
2021/10/06 10:59:23;;;;;;;9.98;2.00;;;26.30;83.40;;;;;;5029967;28;20044;-70
2021/10/06 11:02:33;;;;;;;6.65;1.63;;;25.20;86.10;;;;;;5034556;28;20396;-73
2021/10/06 11:05:48;;;;;;;4.88;1.60;;;24.40;87.20;;;;;;5033116;28;20044;-73
2021/10/06 11:08:53;;;;;;;11.07;1.38;;;23.10;89.50;;;;;;5038814;28;20050;-70
2021/10/06 11:12:06;;;;;;;12.15;1.80;;;24.20;87.50;;;;;;5042477;28;20486;-70
2021/10/06 11:15:13;;;;;;;8.40;1.70;;;26.10;87.50;;;;;;5039279;28;20048;-73
2021/10/06 11:18:21;;;;;;;12.13;2.05;;;26.40;82.40;;;;;;5042012;28;20044;-73
2021/10/06 11:21:41;;;;;;;10.02;2.25;;;25.20;82.50;;;;;;5031800;28;20400;-72
2021/10/06 11:24:48;;;;;;;9.80;1.93;;;24.00;86.50;;;;;;5034513;28;20044;-72
2021/10/06 11:27:52;;;;;;;12.38;2.05;;;22.70;89.60;;;;;;5041236;28;20279;-68
2021/10/06 11:30:57;;;;;;;11.98;1.98;;;24.00;87.50;;;;;;5051485;28;20052;-72
2021/10/06 11:34:04;;;;;;;4.95;1.50;;;26.50;84.90;;;;;;5043891;28;20040;-74
2021/10/06 11:37:15;;;;;;;10.43;1.60;;;28.80;78.80;;;;;;5041800;28;20048;-73
2021/10/06 11:40:21;;;;;;;6.28;1.50;;;28.70;81.60;;;;;;5043619;28;20055;-71
2021/10/06 11:43:40;;;;;;;8.45;1.67;;;31.30;78.50;;;;;;5037870;28;20052;-70
2021/10/06 11:46:46;;;;;;;6.40;1.60;;;29.70;77.50;;;;;;5033778;28;20052;-69
2021/10/06 11:49:50;;;;;;;8.60;2.13;;;27.50;80.60;;;;;;5042873;28;20041;-68
2021/10/06 11:52:55;;;;;;;6.40;1.33;;;28.80;80.40;;;;;;5043807;28;20052;-74
2021/10/06 11:56:00;;;;;;;7.55;2.00;;;31.30;74.20;;;;;;5030887;28;20048;-74
2021/10/06 11:59:11;;;;;;;7.32;1.80;;;31.50;74.60;;;;;;5042534;28;20394;-73
2021/10/06 12:02:16;;;;;;;;;;;31.30;73.30;;;;;;5040381;28;20048;-70
2021/10/06 12:05:21;;;;;;;7.47;1.77;;;31.20;77.40;;;;;;5019098;28;19920;-74
2021/10/06 12:08:24;;;;;;;7.75;1.67;;;28.10;76.00;;;;;;5040343;28;20059;-74
2021/10/06 12:11:29;;;;;;;7.10;2.10;;;30.70;77.90;;;;;;5043663;28;20052;-73
2021/10/06 12:14:33;;;;;;;6.63;1.58;;;31.30;78.00;;;;;;5035435;28;20048;-68
2021/10/06 12:17:40;;;;;;;8.40;1.83;;;28.80;75.00;;;;;;5051952;28;20044;-70
2021/10/06 12:20:44;;;;;;;8.68;1.70;;;27.00;79.50;;;;;;5039335;28;20039;-68
2021/10/06 12:23:49;;;;;;;10.02;2.22;;;24.80;82.60;;;;;;5047396;28;20036;-72
2021/10/06 12:26:54;;;;;;;14.25;2.65;;;24.50;84.90;;;;;;5049243;28;20480;-70
2021/10/06 12:30:13;;;;;;;11.27;2.08;;;24.50;85.90;;;;;;5043131;28;20433;-69
2021/10/06 12:33:18;;;;;;;11.32;1.80;;;24.20;86.10;;;;;;5040491;28;20506;-73
2021/10/06 12:36:25;;;;;;;8.48;1.83;;;24.20;85.90;;;;;;5036817;28;20045;-69
2021/10/06 12:39:30;;;;;;;9.07;1.73;;;24.10;87.70;;;;;;5041955;28;20044;-70
2021/10/06 12:42:34;;;;;;;10.13;2.17;;;24.10;87.50;;;;;;5035269;28;20112;-69
2021/10/06 12:46:05;;;;;;;9.52;1.90;;;24.10;88.40;;;;;;5040086;28;20044;-69
2021/10/06 12:49:13;;;;;;;10.95;2.10;;;23.70;88.60;;;;;;5042602;28;20052;-71
2021/10/06 12:52:29;;;;;;;12.38;2.00;;;24.10;89.60;;;;;;5037240;28;20052;-69
2021/10/06 12:55:33;;;;;;;10.35;2.05;;;24.50;86.70;;;;;;5045511;28;20391;-70
2021/10/06 12:59:20;;;;;;;7.82;1.70;;;24.10;88.10;;;;;;5042434;28;20495;-70
2021/10/06 13:02:25;;;;;;;8.52;1.83;;;24.40;88.30;;;;;;5038848;28;20040;-72
2021/10/06 13:05:31;;;;;;;9.15;1.73;;;24.50;88.50;;;;;;5038075;28;20048;-72
2021/10/06 13:08:36;;;;;;;13.20;2.10;;;24.50;87.50;;;;;;5033877;28;20037;-73
2021/10/06 13:11:42;;;;;;;11.80;2.33;;;24.10;86.60;;;;;;5039940;28;20048;-73
2021/10/06 13:14:47;;;;;;;10.57;1.90;;;24.40;88.40;;;;;;5041697;28;20048;-73
2021/10/06 13:17:50;;;;;;;9.57;2.03;;;25.30;86.30;;;;;;5040644;28;20048;-73
2021/10/06 13:20:54;;;;;;;5.95;1.92;;;26.80;83.70;;;;;;5042719;28;20048;-72
2021/10/06 13:24:00;;;;;;;10.18;1.75;;;28.40;80.10;;;;;;5046243;28;20047;-74
2021/10/06 13:27:04;;;;;;;7.35;1.42;;;29.10;76.60;;;;;;5041448;28;20056;-73
2021/10/06 13:30:09;;;;;;;12.05;2.25;;;29.80;78.80;;;;;;5031911;28;20125;-72
2021/10/06 13:33:14;;;;;;;9.77;1.85;;;31.60;76.50;;;;;;5031666;28;20052;-71
2021/10/06 13:36:18;;;;;;;9.85;2.13;;;31.90;73.80;;;;;;5042646;28;20047;-70
2021/10/06 13:39:22;;;;;;;13.52;2.00;;;31.60;74.80;;;;;;5045160;28;20490;-71
2021/10/06 13:42:26;;;;;;;5.88;1.98;;;31.50;74.60;;;;;;5030045;28;20399;-72
2021/10/06 13:45:30;;;;;;;8.25;1.63;;;32.50;74.10;;;;;;5033869;28;20060;-70
2021/10/06 13:48:40;;;;;;;12.93;2.05;;;32.70;72.80;;;;;;5047403;28;20040;-70
2021/10/06 13:51:45;;;;;;;11.95;1.80;;;32.70;73.40;;;;;;5041812;28;20044;-71
2021/10/06 13:54:49;;;;;;;5.47;1.23;;;32.70;72.10;;;;;;5032196;28;20036;-70
2021/10/06 13:57:53;;;;;;;11.40;1.83;;;32.50;71.90;;;;;;5032486;28;20047;-70
2021/10/06 14:00:57;;;;;;;9.32;2.10;;;31.30;74.80;;;;;;5047184;28;20052;-71
2021/10/06 14:04:02;;;;;;;9.48;2.35;;;30.90;75.80;;;;;;5031957;28;20048;-71
2021/10/06 14:07:06;;;;;;;12.75;2.45;;;30.70;76.00;;;;;;5037157;28;20045;-72
2021/10/06 14:10:10;;;;;;;8.63;2.20;;;31.00;75.90;;;;;;5041546;28;20042;-71
2021/10/06 14:13:14;;;;;;;14.60;2.13;;;30.90;75.30;;;;;;5041819;28;20040;-72
2021/10/06 14:16:19;;;;;;;8.90;1.90;;;30.90;76.30;;;;;;5042388;28;20390;-72
2021/10/06 14:19:23;;;;;;;10.55;2.05;;;30.80;76.20;;;;;;5045832;28;20056;-72
2021/10/06 14:22:28;;;;;;;9.02;1.70;;;30.60;77.00;;;;;;5045946;28;20068;-72
2021/10/06 14:25:32;;;;;;;9.95;2.03;;;31.40;77.20;;;;;;5034667;28;20510;-71
2021/10/06 14:28:40;;;;;;;7.70;1.83;;;31.70;76.30;;;;;;5039819;28;20048;-71
2021/10/06 14:31:44;;;;;;;9.65;1.90;;;30.60;77.00;;;;;;5039490;28;20048;-70
2021/10/06 14:34:48;;;;;;;7.20;2.15;;;28.50;78.40;;;;;;5035747;28;20041;-71
2021/10/06 14:37:54;;;;;;;8.52;1.80;;;27.10;81.80;;;;;;5036514;28;20037;-71
2021/10/06 14:40:59;;;;;;;10.10;2.10;;;26.10;83.80;;;;;;5043608;28;20056;-71
2021/10/06 14:44:03;;;;;;;8.60;1.90;;;25.70;84.40;;;;;;5042462;28;20120;-71
2021/10/06 14:47:08;;;;;;;14.55;2.63;;;25.40;86.20;;;;;;5030254;28;20048;-71
2021/10/06 14:50:12;;;;;;;7.05;1.85;;;24.80;87.30;;;;;;5042786;28;20060;-71
2021/10/06 14:53:16;;;;;;;12.63;2.90;;;24.20;88.80;;;;;;5043336;28;20065;-71
2021/10/06 14:56:21;;;;;;;10.93;1.92;;;23.40;90.30;;;;;;5037533;28;20482;-71
2021/10/06 14:59:27;;;;;;;14.85;3.35;;;23.20;90.50;;;;;;5031291;28;20045;-71
2021/10/06 15:02:31;;;;;;;10.57;2.63;;;23.20;90.80;;;;;;5040923;28;20056;-71
2021/10/06 15:05:35;;;;;;;15.18;2.53;;;24.00;90.60;;;;;;5031172;28;20064;-71
2021/10/06 15:08:39;;;;;;;15.88;2.50;;;25.00;88.40;;;;;;5037376;28;20041;-71
2021/10/06 15:11:45;;;;;;;10.60;1.77;;;25.70;87.90;;;;;;5038447;28;20040;-71
2021/10/06 15:14:52;;;;;;;12.38;2.70;;;25.80;86.70;;;;;;5037238;28;20037;-71
2021/10/06 15:17:56;;;;;;;10.73;1.92;;;26.00;86.80;;;;;;5046528;28;20032;-71
2021/10/06 15:21:00;;;;;;;10.13;1.73;;;25.70;86.30;;;;;;5040818;28;20225;-71
2021/10/06 15:24:05;;;;;;;9.13;2.40;;;25.00;86.60;;;;;;5047745;28;20049;-71
2021/10/06 15:27:12;;;;;;;9.07;1.77;;;24.40;88.10;;;;;;5047917;28;20405;-71
2021/10/06 15:30:25;;;;;;;9.85;1.83;;;23.70;89.40;;;;;;5049455;28;20060;-71
2021/10/06 15:33:34;;;;;;;8.57;1.85;;;23.20;90.60;;;;;;5048662;28;20055;-71
2021/10/06 15:36:39;;;;;;;9.70;2.55;;;22.80;90.50;;;;;;5049782;28;20434;-71
2021/10/06 15:39:45;;;;;;;10.90;1.83;;;22.40;91.40;;;;;;5048925;28;20048;-71
2021/10/06 15:42:51;;;;;;;13.27;2.22;;;22.30;91.60;;;;;;5048770;28;20494;-71
2021/10/06 15:45:56;;;;;;;6.22;1.52;;;22.20;91.70;;;;;;5049274;28;20060;-70
2021/10/06 15:49:01;;;;;;;12.43;1.80;;;22.20;91.80;;;;;;5050918;28;20056;-71
2021/10/06 15:52:05;;;;;;;7.30;1.85;;;22.20;92.00;;;;;;5053148;28;20052;-70
2021/10/06 15:55:11;;;;;;;14.18;1.77;;;22.40;92.00;;;;;;5052942;28;20498;-71
2021/10/06 15:58:14;;;;;;;10.90;1.83;;;22.50;91.40;;;;;;5052590;28;20048;-71
2021/10/06 16:01:20;;;;;;;11.82;1.70;;;22.60;91.50;;;;;;5053163;28;20063;-70
2021/10/06 16:04:25;;;;;;;11.85;1.90;;;22.70;91.40;;;;;;5053461;28;20036;-71
2021/10/06 16:07:29;;;;;;;15.20;2.13;;;22.70;91.50;;;;;;5053289;28;20052;-71
2021/10/06 16:10:33;;;;;;;11.27;2.00;;;22.50;91.30;;;;;;5053224;28;20043;-71
2021/10/06 16:13:39;;;;;;;7.47;2.25;;;22.30;91.30;;;;;;5052459;28;20044;-71